sensor_id;sensor_type;location;lat;lon;timestamp;P1;durP1;ratioP1;P2;durP2;ratioP2
33716;SDS011;20046;50.746;7.072;2023-12-20T00:00:05;3.70;;;2.90;;
33716;SDS011;20046;50.746;7.072;2023-12-20T00:02:31;4.13;;;2.88;;
33716;SDS011;20046;50.746;7.072;2023-12-20T00:04:56;5.30;;;3.33;;
33716;SDS011;20046;50.746;7.072;2023-12-20T00:07:22;4.25;;;2.83;;
33716;SDS011;20046;50.746;7.072;2023-12-20T00:09:47;4.55;;;3.05;;
33716;SDS011;20046;50.746;7.072;2023-12-20T00:12:16;5.93;;;3.22;;
33716;SDS011;20046;50.746;7.072;2023-12-20T00:14:41;4.22;;;2.78;;
33716;SDS011;20046;50.746;7.072;2023-12-20T00:17:07;5.07;;;2.92;;
33716;SDS011;20046;50.746;7.072;2023-12-20T00:19:32;5.05;;;3.10;;
33716;SDS011;20046;50.746;7.072;2023-12-20T00:21:58;4.63;;;3.22;;
33716;SDS011;20046;50.746;7.072;2023-12-20T00:24:24;4.30;;;3.35;;
33716;SDS011;20046;50.746;7.072;2023-12-20T00:26:50;4.15;;;3.13;;
33716;SDS011;20046;50.746;7.072;2023-12-20T00:29:16;4.78;;;3.10;;
33716;SDS011;20046;50.746;7.072;2023-12-20T00:31:41;4.30;;;3.00;;
33716;SDS011;20046;50.746;7.072;2023-12-20T00:34:07;4.00;;;3.00;;
33716;SDS011;20046;50.746;7.072;2023-12-20T00:36:32;4.10;;;3.30;;
33716;SDS011;20046;50.746;7.072;2023-12-20T00:38:58;4.30;;;3.25;;
33716;SDS011;20046;50.746;7.072;2023-12-20T00:41:24;5.97;;;3.15;;
33716;SDS011;20046;50.746;7.072;2023-12-20T00:43:49;4.47;;;3.40;;
33716;SDS011;20046;50.746;7.072;2023-12-20T00:46:15;4.78;;;3.22;;
33716;SDS011;20046;50.746;7.072;2023-12-20T00:48:40;4.88;;;3.38;;
33716;SDS011;20046;50.746;7.072;2023-12-20T00:51:07;4.30;;;3.20;;
33716;SDS011;20046;50.746;7.072;2023-12-20T00:53:33;7.32;;;3.30;;
33716;SDS011;20046;50.746;7.072;2023-12-20T00:55:58;3.78;;;3.08;;
33716;SDS011;20046;50.746;7.072;2023-12-20T00:58:24;5.20;;;3.05;;
33716;SDS011;20046;50.746;7.072;2023-12-20T01:00:49;3.85;;;2.50;;
33716;SDS011;20046;50.746;7.072;2023-12-20T01:03:16;4.45;;;2.85;;
33716;SDS011;20046;50.746;7.072;2023-12-20T01:05:41;3.40;;;2.50;;
33716;SDS011;20046;50.746;7.072;2023-12-20T01:08:07;3.70;;;2.50;;
33716;SDS011;20046;50.746;7.072;2023-12-20T01:10:32;4.82;;;3.13;;
33716;SDS011;20046;50.746;7.072;2023-12-20T01:12:58;3.13;;;2.28;;
33716;SDS011;20046;50.746;7.072;2023-12-20T01:15:23;3.97;;;3.00;;
33716;SDS011;20046;50.746;7.072;2023-12-20T01:17:49;4.38;;;3.45;;
33716;SDS011;20046;50.746;7.072;2023-12-20T01:20:15;6.35;;;4.35;;
33716;SDS011;20046;50.746;7.072;2023-12-20T01:22:40;10.00;;;5.50;;
33716;SDS011;20046;50.746;7.072;2023-12-20T01:25:07;11.02;;;6.85;;
33716;SDS011;20046;50.746;7.072;2023-12-20T01:27:33;9.98;;;6.43;;
33716;SDS011;20046;50.746;7.072;2023-12-20T01:29:59;13.63;;;7.55;;
33716;SDS011;20046;50.746;7.072;2023-12-20T01:32:24;14.18;;;8.45;;
33716;SDS011;20046;50.746;7.072;2023-12-20T01:34:50;16.17;;;9.40;;
33716;SDS011;20046;50.746;7.072;2023-12-20T01:37:16;14.90;;;9.18;;
33716;SDS011;20046;50.746;7.072;2023-12-20T01:39:41;18.20;;;10.68;;
33716;SDS011;20046;50.746;7.072;2023-12-20T01:42:07;17.70;;;11.13;;
33716;SDS011;20046;50.746;7.072;2023-12-20T01:44:32;21.48;;;12.35;;
33716;SDS011;20046;50.746;7.072;2023-12-20T01:46:58;21.65;;;12.57;;
33716;SDS011;20046;50.746;7.072;2023-12-20T01:49:24;24.02;;;13.15;;
33716;SDS011;20046;50.746;7.072;2023-12-20T01:51:50;25.02;;;13.10;;
33716;SDS011;20046;50.746;7.072;2023-12-20T01:54:16;24.58;;;13.63;;
33716;SDS011;20046;50.746;7.072;2023-12-20T01:56:44;33.58;;;14.25;;
33716;SDS011;20046;50.746;7.072;2023-12-20T01:59:10;29.27;;;14.25;;
33716;SDS011;20046;50.746;7.072;2023-12-20T02:01:36;29.50;;;14.32;;
33716;SDS011;20046;50.746;7.072;2023-12-20T02:04:02;31.73;;;14.00;;
33716;SDS011;20046;50.746;7.072;2023-12-20T02:06:30;29.88;;;13.85;;
33716;SDS011;20046;50.746;7.072;2023-12-20T02:08:58;23.55;;;13.43;;
33716;SDS011;20046;50.746;7.072;2023-12-20T02:11:24;27.38;;;13.52;;
33716;SDS011;20046;50.746;7.072;2023-12-20T02:13:51;31.50;;;14.38;;
33716;SDS011;20046;50.746;7.072;2023-12-20T02:16:16;36.67;;;14.80;;
33716;SDS011;20046;50.746;7.072;2023-12-20T02:18:42;30.83;;;14.27;;
33716;SDS011;20046;50.746;7.072;2023-12-20T02:21:09;24.48;;;14.30;;
33716;SDS011;20046;50.746;7.072;2023-12-20T02:23:35;32.25;;;13.88;;
33716;SDS011;20046;50.746;7.072;2023-12-20T02:26:00;25.52;;;11.93;;
33716;SDS011;20046;50.746;7.072;2023-12-20T02:28:27;27.40;;;12.00;;
33716;SDS011;20046;50.746;7.072;2023-12-20T02:30:53;26.25;;;9.55;;
33716;SDS011;20046;50.746;7.072;2023-12-20T02:33:19;33.28;;;9.15;;
33716;SDS011;20046;50.746;7.072;2023-12-20T02:35:44;19.55;;;6.72;;
33716;SDS011;20046;50.746;7.072;2023-12-20T02:38:10;20.70;;;5.97;;
33716;SDS011;20046;50.746;7.072;2023-12-20T02:40:35;23.83;;;5.90;;
33716;SDS011;20046;50.746;7.072;2023-12-20T02:43:01;21.45;;;5.50;;
33716;SDS011;20046;50.746;7.072;2023-12-20T02:45:27;25.20;;;5.85;;
33716;SDS011;20046;50.746;7.072;2023-12-20T02:47:52;17.33;;;5.78;;
33716;SDS011;20046;50.746;7.072;2023-12-20T02:50:18;20.25;;;4.97;;
33716;SDS011;20046;50.746;7.072;2023-12-20T02:52:46;19.77;;;4.85;;
33716;SDS011;20046;50.746;7.072;2023-12-20T02:55:12;23.40;;;4.75;;
33716;SDS011;20046;50.746;7.072;2023-12-20T02:57:37;17.38;;;4.38;;
33716;SDS011;20046;50.746;7.072;2023-12-20T03:00:07;16.77;;;4.55;;
33716;SDS011;20046;50.746;7.072;2023-12-20T03:02:34;20.40;;;5.05;;
33716;SDS011;20046;50.746;7.072;2023-12-20T03:04:59;21.05;;;4.93;;
33716;SDS011;20046;50.746;7.072;2023-12-20T03:07:25;16.98;;;4.00;;
33716;SDS011;20046;50.746;7.072;2023-12-20T03:09:51;24.35;;;3.90;;
33716;SDS011;20046;50.746;7.072;2023-12-20T03:12:16;19.10;;;3.95;;
33716;SDS011;20046;50.746;7.072;2023-12-20T03:14:43;23.48;;;3.97;;
33716;SDS011;20046;50.746;7.072;2023-12-20T03:17:09;19.55;;;3.85;;
33716;SDS011;20046;50.746;7.072;2023-12-20T03:19:35;17.75;;;3.95;;
33716;SDS011;20046;50.746;7.072;2023-12-20T03:22:00;26.45;;;4.25;;
33716;SDS011;20046;50.746;7.072;2023-12-20T03:24:26;22.10;;;3.58;;
33716;SDS011;20046;50.746;7.072;2023-12-20T03:26:52;22.98;;;4.25;;
33716;SDS011;20046;50.746;7.072;2023-12-20T03:29:17;20.65;;;3.55;;
33716;SDS011;20046;50.746;7.072;2023-12-20T03:31:43;21.10;;;3.55;;
33716;SDS011;20046;50.746;7.072;2023-12-20T03:34:08;18.60;;;3.42;;
33716;SDS011;20046;50.746;7.072;2023-12-20T03:36:34;20.30;;;4.15;;
33716;SDS011;20046;50.746;7.072;2023-12-20T03:38:59;19.35;;;3.88;;
33716;SDS011;20046;50.746;7.072;2023-12-20T03:41:25;19.52;;;4.40;;
33716;SDS011;20046;50.746;7.072;2023-12-20T03:43:50;18.45;;;3.83;;
33716;SDS011;20046;50.746;7.072;2023-12-20T03:46:16;31.15;;;4.05;;
33716;SDS011;20046;50.746;7.072;2023-12-20T03:48:42;24.40;;;5.38;;
33716;SDS011;20046;50.746;7.072;2023-12-20T03:51:07;29.73;;;4.40;;
33716;SDS011;20046;50.746;7.072;2023-12-20T03:53:33;15.85;;;3.88;;
33716;SDS011;20046;50.746;7.072;2023-12-20T03:55:58;15.55;;;3.97;;
33716;SDS011;20046;50.746;7.072;2023-12-20T03:58:24;28.05;;;4.20;;
33716;SDS011;20046;50.746;7.072;2023-12-20T04:00:50;19.38;;;3.70;;
33716;SDS011;20046;50.746;7.072;2023-12-20T04:03:15;19.63;;;3.78;;
33716;SDS011;20046;50.746;7.072;2023-12-20T04:05:41;22.33;;;3.72;;
33716;SDS011;20046;50.746;7.072;2023-12-20T04:08:07;20.95;;;4.28;;
33716;SDS011;20046;50.746;7.072;2023-12-20T04:10:33;24.30;;;3.85;;
33716;SDS011;20046;50.746;7.072;2023-12-20T04:12:58;17.02;;;3.63;;
33716;SDS011;20046;50.746;7.072;2023-12-20T04:15:24;20.60;;;4.00;;
33716;SDS011;20046;50.746;7.072;2023-12-20T04:17:49;11.70;;;3.60;;
33716;SDS011;20046;50.746;7.072;2023-12-20T04:20:15;18.70;;;3.67;;
33716;SDS011;20046;50.746;7.072;2023-12-20T04:22:40;29.05;;;4.55;;
33716;SDS011;20046;50.746;7.072;2023-12-20T04:25:07;18.83;;;3.90;;
33716;SDS011;20046;50.746;7.072;2023-12-20T04:27:33;24.30;;;4.28;;
33716;SDS011;20046;50.746;7.072;2023-12-20T04:29:58;20.00;;;3.85;;
33716;SDS011;20046;50.746;7.072;2023-12-20T04:32:24;22.35;;;4.47;;
33716;SDS011;20046;50.746;7.072;2023-12-20T04:34:50;16.30;;;3.90;;
33716;SDS011;20046;50.746;7.072;2023-12-20T04:37:15;23.17;;;4.97;;
33716;SDS011;20046;50.746;7.072;2023-12-20T04:39:41;27.38;;;8.07;;
33716;SDS011;20046;50.746;7.072;2023-12-20T04:42:07;17.88;;;5.00;;
33716;SDS011;20046;50.746;7.072;2023-12-20T04:44:33;24.65;;;5.20;;
33716;SDS011;20046;50.746;7.072;2023-12-20T04:46:59;24.45;;;5.10;;
33716;SDS011;20046;50.746;7.072;2023-12-20T04:49:25;16.20;;;5.57;;
33716;SDS011;20046;50.746;7.072;2023-12-20T04:51:50;22.50;;;4.75;;
33716;SDS011;20046;50.746;7.072;2023-12-20T04:54:16;21.80;;;4.75;;
33716;SDS011;20046;50.746;7.072;2023-12-20T04:56:42;18.25;;;4.55;;
33716;SDS011;20046;50.746;7.072;2023-12-20T04:59:07;20.13;;;5.03;;
33716;SDS011;20046;50.746;7.072;2023-12-20T05:01:33;19.15;;;5.63;;
33716;SDS011;20046;50.746;7.072;2023-12-20T05:03:59;26.67;;;5.15;;
33716;SDS011;20046;50.746;7.072;2023-12-20T05:06:24;22.20;;;5.25;;
33716;SDS011;20046;50.746;7.072;2023-12-20T05:08:50;24.88;;;5.70;;
33716;SDS011;20046;50.746;7.072;2023-12-20T05:11:15;33.45;;;6.38;;
33716;SDS011;20046;50.746;7.072;2023-12-20T05:13:41;19.83;;;4.63;;
33716;SDS011;20046;50.746;7.072;2023-12-20T05:16:07;25.10;;;5.18;;
33716;SDS011;20046;50.746;7.072;2023-12-20T05:18:34;22.23;;;4.28;;
33716;SDS011;20046;50.746;7.072;2023-12-20T05:20:59;27.20;;;4.85;;
33716;SDS011;20046;50.746;7.072;2023-12-20T05:23:25;16.92;;;4.88;;
33716;SDS011;20046;50.746;7.072;2023-12-20T05:25:51;24.90;;;4.85;;
33716;SDS011;20046;50.746;7.072;2023-12-20T05:28:16;23.88;;;4.93;;
33716;SDS011;20046;50.746;7.072;2023-12-20T05:30:42;20.77;;;4.93;;
33716;SDS011;20046;50.746;7.072;2023-12-20T05:33:08;22.80;;;5.28;;
33716;SDS011;20046;50.746;7.072;2023-12-20T05:35:34;24.95;;;5.82;;
33716;SDS011;20046;50.746;7.072;2023-12-20T05:38:00;20.92;;;4.95;;
33716;SDS011;20046;50.746;7.072;2023-12-20T05:40:25;22.85;;;5.63;;
33716;SDS011;20046;50.746;7.072;2023-12-20T05:42:51;27.33;;;4.65;;
33716;SDS011;20046;50.746;7.072;2023-12-20T05:45:16;20.92;;;5.13;;
33716;SDS011;20046;50.746;7.072;2023-12-20T05:47:42;27.80;;;6.32;;
33716;SDS011;20046;50.746;7.072;2023-12-20T05:50:08;34.42;;;5.00;;
33716;SDS011;20046;50.746;7.072;2023-12-20T05:52:34;28.95;;;5.20;;
33716;SDS011;20046;50.746;7.072;2023-12-20T05:54:59;29.30;;;5.20;;
33716;SDS011;20046;50.746;7.072;2023-12-20T05:57:26;20.65;;;4.75;;
33716;SDS011;20046;50.746;7.072;2023-12-20T05:59:52;24.75;;;5.93;;
33716;SDS011;20046;50.746;7.072;2023-12-20T06:02:17;26.80;;;5.53;;
33716;SDS011;20046;50.746;7.072;2023-12-20T06:04:43;30.65;;;5.07;;
33716;SDS011;20046;50.746;7.072;2023-12-20T06:07:11;22.05;;;4.78;;
33716;SDS011;20046;50.746;7.072;2023-12-20T06:09:37;29.48;;;4.97;;
33716;SDS011;20046;50.746;7.072;2023-12-20T06:12:03;30.85;;;5.03;;
33716;SDS011;20046;50.746;7.072;2023-12-20T06:14:29;22.08;;;5.45;;
33716;SDS011;20046;50.746;7.072;2023-12-20T06:16:55;28.50;;;5.35;;
33716;SDS011;20046;50.746;7.072;2023-12-20T06:19:21;22.13;;;4.72;;
33716;SDS011;20046;50.746;7.072;2023-12-20T06:21:47;28.67;;;5.15;;
33716;SDS011;20046;50.746;7.072;2023-12-20T06:24:13;29.27;;;5.13;;
33716;SDS011;20046;50.746;7.072;2023-12-20T06:26:39;22.35;;;4.72;;
33716;SDS011;20046;50.746;7.072;2023-12-20T06:29:04;28.50;;;5.90;;
33716;SDS011;20046;50.746;7.072;2023-12-20T06:31:30;27.52;;;5.50;;
33716;SDS011;20046;50.746;7.072;2023-12-20T06:33:57;29.13;;;6.22;;
33716;SDS011;20046;50.746;7.072;2023-12-20T06:36:24;30.95;;;4.97;;
33716;SDS011;20046;50.746;7.072;2023-12-20T06:38:50;21.90;;;4.38;;
33716;SDS011;20046;50.746;7.072;2023-12-20T06:41:16;18.50;;;4.35;;
33716;SDS011;20046;50.746;7.072;2023-12-20T06:43:42;21.55;;;4.97;;
33716;SDS011;20046;50.746;7.072;2023-12-20T06:46:08;25.02;;;5.03;;
33716;SDS011;20046;50.746;7.072;2023-12-20T06:48:34;28.02;;;4.85;;
33716;SDS011;20046;50.746;7.072;2023-12-20T06:51:00;23.80;;;4.70;;
33716;SDS011;20046;50.746;7.072;2023-12-20T06:53:29;26.70;;;3.85;;
33716;SDS011;20046;50.746;7.072;2023-12-20T06:55:54;27.00;;;4.55;;
33716;SDS011;20046;50.746;7.072;2023-12-20T06:58:21;20.25;;;5.00;;
33716;SDS011;20046;50.746;7.072;2023-12-20T07:00:47;33.45;;;5.35;;
33716;SDS011;20046;50.746;7.072;2023-12-20T07:03:13;33.35;;;5.80;;
33716;SDS011;20046;50.746;7.072;2023-12-20T07:05:38;20.05;;;4.32;;
33716;SDS011;20046;50.746;7.072;2023-12-20T07:08:05;22.13;;;5.03;;
33716;SDS011;20046;50.746;7.072;2023-12-20T07:10:31;25.60;;;5.18;;
33716;SDS011;20046;50.746;7.072;2023-12-20T07:12:57;32.38;;;4.75;;
33716;SDS011;20046;50.746;7.072;2023-12-20T07:15:23;21.25;;;4.75;;
33716;SDS011;20046;50.746;7.072;2023-12-20T07:17:48;28.10;;;4.72;;
33716;SDS011;20046;50.746;7.072;2023-12-20T07:20:14;15.60;;;3.92;;
33716;SDS011;20046;50.746;7.072;2023-12-20T07:22:40;12.32;;;3.95;;
33716;SDS011;20046;50.746;7.072;2023-12-20T07:25:05;20.15;;;4.32;;
33716;SDS011;20046;50.746;7.072;2023-12-20T07:27:32;18.73;;;6.28;;
33716;SDS011;20046;50.746;7.072;2023-12-20T07:29:57;21.92;;;4.90;;
33716;SDS011;20046;50.746;7.072;2023-12-20T07:32:23;26.58;;;4.95;;
33716;SDS011;20046;50.746;7.072;2023-12-20T07:34:48;20.60;;;4.22;;
33716;SDS011;20046;50.746;7.072;2023-12-20T07:37:14;21.10;;;3.83;;
33716;SDS011;20046;50.746;7.072;2023-12-20T07:39:40;19.88;;;4.47;;
33716;SDS011;20046;50.746;7.072;2023-12-20T07:42:07;20.85;;;3.85;;
33716;SDS011;20046;50.746;7.072;2023-12-20T07:44:33;23.40;;;4.40;;
33716;SDS011;20046;50.746;7.072;2023-12-20T07:46:59;22.60;;;4.38;;
33716;SDS011;20046;50.746;7.072;2023-12-20T07:49:26;25.88;;;5.00;;
33716;SDS011;20046;50.746;7.072;2023-12-20T07:51:51;19.27;;;4.28;;
33716;SDS011;20046;50.746;7.072;2023-12-20T07:54:17;24.40;;;4.60;;
33716;SDS011;20046;50.746;7.072;2023-12-20T07:56:42;18.42;;;3.60;;
33716;SDS011;20046;50.746;7.072;2023-12-20T07:59:08;25.85;;;4.38;;
33716;SDS011;20046;50.746;7.072;2023-12-20T08:01:34;22.55;;;4.70;;
33716;SDS011;20046;50.746;7.072;2023-12-20T08:03:59;26.77;;;4.40;;
33716;SDS011;20046;50.746;7.072;2023-12-20T08:06:25;23.13;;;4.15;;
33716;SDS011;20046;50.746;7.072;2023-12-20T08:08:51;18.63;;;3.40;;
33716;SDS011;20046;50.746;7.072;2023-12-20T08:11:16;11.73;;;3.63;;
33716;SDS011;20046;50.746;7.072;2023-12-20T08:13:42;14.48;;;3.85;;
33716;SDS011;20046;50.746;7.072;2023-12-20T08:16:08;29.00;;;4.78;;
33716;SDS011;20046;50.746;7.072;2023-12-20T08:18:34;25.27;;;4.63;;
33716;SDS011;20046;50.746;7.072;2023-12-20T08:20:59;22.90;;;3.83;;
33716;SDS011;20046;50.746;7.072;2023-12-20T08:23:26;18.48;;;3.53;;
33716;SDS011;20046;50.746;7.072;2023-12-20T08:25:52;21.25;;;4.22;;
33716;SDS011;20046;50.746;7.072;2023-12-20T08:28:17;18.73;;;3.40;;
33716;SDS011;20046;50.746;7.072;2023-12-20T08:30:43;22.20;;;4.45;;
33716;SDS011;20046;50.746;7.072;2023-12-20T08:33:08;18.60;;;4.35;;
33716;SDS011;20046;50.746;7.072;2023-12-20T08:35:37;18.20;;;4.15;;
33716;SDS011;20046;50.746;7.072;2023-12-20T08:38:06;18.17;;;4.10;;
33716;SDS011;20046;50.746;7.072;2023-12-20T08:40:32;22.30;;;4.20;;
33716;SDS011;20046;50.746;7.072;2023-12-20T08:42:57;29.42;;;4.93;;
33716;SDS011;20046;50.746;7.072;2023-12-20T08:45:23;20.00;;;3.72;;
33716;SDS011;20046;50.746;7.072;2023-12-20T08:47:49;16.95;;;5.03;;
33716;SDS011;20046;50.746;7.072;2023-12-20T08:50:15;23.77;;;4.60;;
33716;SDS011;20046;50.746;7.072;2023-12-20T08:52:40;19.90;;;4.68;;
33716;SDS011;20046;50.746;7.072;2023-12-20T08:55:07;21.60;;;3.67;;
33716;SDS011;20046;50.746;7.072;2023-12-20T08:57:33;22.08;;;4.28;;
33716;SDS011;20046;50.746;7.072;2023-12-20T08:59:58;19.38;;;3.67;;
33716;SDS011;20046;50.746;7.072;2023-12-20T09:02:24;20.95;;;4.25;;
33716;SDS011;20046;50.746;7.072;2023-12-20T09:04:50;13.63;;;3.75;;
33716;SDS011;20046;50.746;7.072;2023-12-20T09:07:25;16.42;;;3.60;;
33716;SDS011;20046;50.746;7.072;2023-12-20T09:09:52;18.50;;;3.53;;
33716;SDS011;20046;50.746;7.072;2023-12-20T09:12:18;18.92;;;4.53;;
33716;SDS011;20046;50.746;7.072;2023-12-20T09:14:47;18.70;;;4.40;;
33716;SDS011;20046;50.746;7.072;2023-12-20T09:17:15;26.88;;;3.63;;
33716;SDS011;20046;50.746;7.072;2023-12-20T09:19:41;15.68;;;3.72;;
33716;SDS011;20046;50.746;7.072;2023-12-20T09:22:09;23.48;;;4.47;;
33716;SDS011;20046;50.746;7.072;2023-12-20T09:24:35;21.05;;;3.78;;
33716;SDS011;20046;50.746;7.072;2023-12-20T09:27:01;16.00;;;3.15;;
33716;SDS011;20046;50.746;7.072;2023-12-20T09:29:26;23.65;;;3.78;;
33716;SDS011;20046;50.746;7.072;2023-12-20T09:31:52;21.38;;;4.10;;
33716;SDS011;20046;50.746;7.072;2023-12-20T09:34:18;15.35;;;3.53;;
33716;SDS011;20046;50.746;7.072;2023-12-20T09:36:43;20.33;;;4.00;;
33716;SDS011;20046;50.746;7.072;2023-12-20T09:39:19;17.02;;;3.00;;
33716;SDS011;20046;50.746;7.072;2023-12-20T09:42:07;18.52;;;3.30;;
33716;SDS011;20046;50.746;7.072;2023-12-20T09:44:32;22.25;;;3.20;;
33716;SDS011;20046;50.746;7.072;2023-12-20T09:47:01;14.82;;;2.72;;
33716;SDS011;20046;50.746;7.072;2023-12-20T09:49:29;17.85;;;3.47;;
33716;SDS011;20046;50.746;7.072;2023-12-20T09:51:55;14.85;;;3.05;;
33716;SDS011;20046;50.746;7.072;2023-12-20T09:54:21;18.15;;;3.28;;
33716;SDS011;20046;50.746;7.072;2023-12-20T09:56:48;13.38;;;3.30;;
33716;SDS011;20046;50.746;7.072;2023-12-20T09:59:14;21.05;;;3.40;;
33716;SDS011;20046;50.746;7.072;2023-12-20T10:01:40;19.67;;;3.58;;
33716;SDS011;20046;50.746;7.072;2023-12-20T10:04:08;19.50;;;3.78;;
33716;SDS011;20046;50.746;7.072;2023-12-20T10:06:43;19.43;;;3.60;;
33716;SDS011;20046;50.746;7.072;2023-12-20T10:09:09;17.95;;;3.83;;
33716;SDS011;20046;50.746;7.072;2023-12-20T10:11:36;16.15;;;3.15;;
33716;SDS011;20046;50.746;7.072;2023-12-20T10:14:02;20.85;;;3.60;;
33716;SDS011;20046;50.746;7.072;2023-12-20T10:16:28;16.33;;;3.70;;
33716;SDS011;20046;50.746;7.072;2023-12-20T10:18:54;14.98;;;3.38;;
33716;SDS011;20046;50.746;7.072;2023-12-20T10:21:22;25.35;;;4.32;;
33716;SDS011;20046;50.746;7.072;2023-12-20T10:23:48;15.63;;;3.20;;
33716;SDS011;20046;50.746;7.072;2023-12-20T10:26:20;14.07;;;3.33;;
33716;SDS011;20046;50.746;7.072;2023-12-20T10:28:53;16.77;;;3.83;;
33716;SDS011;20046;50.746;7.072;2023-12-20T10:31:32;18.95;;;3.60;;
33716;SDS011;20046;50.746;7.072;2023-12-20T10:34:00;20.08;;;3.53;;
33716;SDS011;20046;50.746;7.072;2023-12-20T10:36:27;21.95;;;4.07;;
33716;SDS011;20046;50.746;7.072;2023-12-20T10:38:55;48.03;;;7.80;;
33716;SDS011;20046;50.746;7.072;2023-12-20T10:41:29;18.90;;;3.70;;
33716;SDS011;20046;50.746;7.072;2023-12-20T10:43:56;20.73;;;3.75;;
33716;SDS011;20046;50.746;7.072;2023-12-20T10:46:26;21.50;;;4.70;;
33716;SDS011;20046;50.746;7.072;2023-12-20T10:48:53;16.33;;;3.58;;
33716;SDS011;20046;50.746;7.072;2023-12-20T10:51:20;17.60;;;3.00;;
33716;SDS011;20046;50.746;7.072;2023-12-20T10:53:49;20.52;;;3.42;;
33716;SDS011;20046;50.746;7.072;2023-12-20T10:56:19;15.93;;;3.10;;
33716;SDS011;20046;50.746;7.072;2023-12-20T10:58:45;17.52;;;3.20;;
33716;SDS011;20046;50.746;7.072;2023-12-20T11:01:16;21.80;;;3.15;;
33716;SDS011;20046;50.746;7.072;2023-12-20T11:03:51;23.10;;;3.88;;
33716;SDS011;20046;50.746;7.072;2023-12-20T11:09:23;21.58;;;4.15;;
33716;SDS011;20046;50.746;7.072;2023-12-20T11:14:25;12.43;;;3.00;;
33716;SDS011;20046;50.746;7.072;2023-12-20T11:17:09;13.40;;;3.85;;
33716;SDS011;20046;50.746;7.072;2023-12-20T11:19:43;13.70;;;3.60;;
33716;SDS011;20046;50.746;7.072;2023-12-20T11:22:27;19.48;;;3.45;;
33716;SDS011;20046;50.746;7.072;2023-12-20T11:24:58;11.32;;;3.08;;
33716;SDS011;20046;50.746;7.072;2023-12-20T11:29:56;18.40;;;3.78;;
33716;SDS011;20046;50.746;7.072;2023-12-20T11:34:56;21.20;;;3.95;;
33716;SDS011;20046;50.746;7.072;2023-12-20T11:37:45;21.58;;;3.80;;
33716;SDS011;20046;50.746;7.072;2023-12-20T11:40:17;13.55;;;3.67;;
33716;SDS011;20046;50.746;7.072;2023-12-20T11:42:49;20.50;;;4.20;;
33716;SDS011;20046;50.746;7.072;2023-12-20T11:45:19;20.30;;;3.67;;
33716;SDS011;20046;50.746;7.072;2023-12-20T11:47:47;15.63;;;3.50;;
33716;SDS011;20046;50.746;7.072;2023-12-20T11:50:19;19.67;;;3.50;;
33716;SDS011;20046;50.746;7.072;2023-12-20T11:52:46;11.73;;;3.85;;
33716;SDS011;20046;50.746;7.072;2023-12-20T11:55:12;15.25;;;3.83;;
33716;SDS011;20046;50.746;7.072;2023-12-20T11:57:38;21.65;;;4.00;;
33716;SDS011;20046;50.746;7.072;2023-12-20T12:00:05;14.27;;;3.05;;
33716;SDS011;20046;50.746;7.072;2023-12-20T12:02:31;19.38;;;4.55;;
33716;SDS011;20046;50.746;7.072;2023-12-20T12:04:57;13.13;;;3.13;;
33716;SDS011;20046;50.746;7.072;2023-12-20T12:07:24;18.30;;;3.67;;
33716;SDS011;20046;50.746;7.072;2023-12-20T12:09:50;15.13;;;4.22;;
33716;SDS011;20046;50.746;7.072;2023-12-20T12:12:16;7.47;;;3.38;;
33716;SDS011;20046;50.746;7.072;2023-12-20T12:14:45;19.00;;;3.35;;
33716;SDS011;20046;50.746;7.072;2023-12-20T12:17:13;14.15;;;3.08;;
33716;SDS011;20046;50.746;7.072;2023-12-20T12:19:40;14.48;;;3.00;;
33716;SDS011;20046;50.746;7.072;2023-12-20T12:22:09;16.23;;;3.20;;
33716;SDS011;20046;50.746;7.072;2023-12-20T12:24:42;13.77;;;3.05;;
33716;SDS011;20046;50.746;7.072;2023-12-20T12:27:09;13.10;;;3.92;;
33716;SDS011;20046;50.746;7.072;2023-12-20T12:29:35;21.00;;;3.80;;
33716;SDS011;20046;50.746;7.072;2023-12-20T12:32:05;18.58;;;3.72;;
33716;SDS011;20046;50.746;7.072;2023-12-20T12:34:32;18.08;;;3.38;;
33716;SDS011;20046;50.746;7.072;2023-12-20T12:36:59;13.25;;;3.13;;
33716;SDS011;20046;50.746;7.072;2023-12-20T12:39:25;15.98;;;3.38;;
33716;SDS011;20046;50.746;7.072;2023-12-20T12:41:51;15.60;;;3.30;;
33716;SDS011;20046;50.746;7.072;2023-12-20T12:44:16;20.30;;;3.38;;
33716;SDS011;20046;50.746;7.072;2023-12-20T12:46:43;27.70;;;4.57;;
33716;SDS011;20046;50.746;7.072;2023-12-20T12:49:09;17.45;;;3.53;;
33716;SDS011;20046;50.746;7.072;2023-12-20T12:51:35;20.55;;;3.70;;
33716;SDS011;20046;50.746;7.072;2023-12-20T12:54:01;15.63;;;4.18;;
33716;SDS011;20046;50.746;7.072;2023-12-20T12:56:27;27.00;;;4.18;;
33716;SDS011;20046;50.746;7.072;2023-12-20T12:58:52;23.38;;;4.38;;
33716;SDS011;20046;50.746;7.072;2023-12-20T13:01:18;18.95;;;3.10;;
33716;SDS011;20046;50.746;7.072;2023-12-20T13:03:44;22.52;;;3.47;;
33716;SDS011;20046;50.746;7.072;2023-12-20T13:06:09;14.25;;;3.30;;
33716;SDS011;20046;50.746;7.072;2023-12-20T13:08:35;15.98;;;3.95;;
33716;SDS011;20046;50.746;7.072;2023-12-20T13:11:00;17.55;;;3.67;;
33716;SDS011;20046;50.746;7.072;2023-12-20T13:13:29;18.55;;;3.35;;
33716;SDS011;20046;50.746;7.072;2023-12-20T13:15:55;12.93;;;2.92;;
33716;SDS011;20046;50.746;7.072;2023-12-20T13:18:21;12.73;;;3.65;;
33716;SDS011;20046;50.746;7.072;2023-12-20T13:20:47;16.55;;;3.95;;
33716;SDS011;20046;50.746;7.072;2023-12-20T13:23:13;19.88;;;3.53;;
33716;SDS011;20046;50.746;7.072;2023-12-20T13:25:39;16.75;;;3.75;;
33716;SDS011;20046;50.746;7.072;2023-12-20T13:28:05;13.75;;;3.50;;
33716;SDS011;20046;50.746;7.072;2023-12-20T13:30:31;18.38;;;4.00;;
33716;SDS011;20046;50.746;7.072;2023-12-20T13:32:57;12.75;;;2.97;;
33716;SDS011;20046;50.746;7.072;2023-12-20T13:35:22;18.58;;;3.95;;
33716;SDS011;20046;50.746;7.072;2023-12-20T13:37:48;18.15;;;4.07;;
33716;SDS011;20046;50.746;7.072;2023-12-20T13:40:13;21.30;;;4.20;;
33716;SDS011;20046;50.746;7.072;2023-12-20T13:42:39;13.13;;;3.53;;
33716;SDS011;20046;50.746;7.072;2023-12-20T13:45:05;14.88;;;3.60;;
33716;SDS011;20046;50.746;7.072;2023-12-20T13:47:31;15.80;;;4.00;;
33716;SDS011;20046;50.746;7.072;2023-12-20T13:49:57;23.10;;;4.60;;
33716;SDS011;20046;50.746;7.072;2023-12-20T13:52:23;17.65;;;4.35;;
33716;SDS011;20046;50.746;7.072;2023-12-20T13:54:49;16.98;;;3.90;;
33716;SDS011;20046;50.746;7.072;2023-12-20T13:57:14;11.32;;;4.30;;
33716;SDS011;20046;50.746;7.072;2023-12-20T13:59:40;21.33;;;4.65;;
33716;SDS011;20046;50.746;7.072;2023-12-20T14:02:06;27.13;;;4.70;;
33716;SDS011;20046;50.746;7.072;2023-12-20T14:04:31;16.02;;;4.00;;
33716;SDS011;20046;50.746;7.072;2023-12-20T14:06:57;19.30;;;4.28;;
33716;SDS011;20046;50.746;7.072;2023-12-20T14:09:23;13.75;;;3.70;;
33716;SDS011;20046;50.746;7.072;2023-12-20T14:11:48;17.67;;;3.70;;
33716;SDS011;20046;50.746;7.072;2023-12-20T14:14:14;12.88;;;3.42;;
33716;SDS011;20046;50.746;7.072;2023-12-20T14:16:39;11.75;;;2.80;;
33716;SDS011;20046;50.746;7.072;2023-12-20T14:19:06;10.98;;;3.63;;
33716;SDS011;20046;50.746;7.072;2023-12-20T14:21:34;10.70;;;2.58;;
33716;SDS011;20046;50.746;7.072;2023-12-20T14:24:00;12.38;;;4.05;;
33716;SDS011;20046;50.746;7.072;2023-12-20T14:26:25;11.32;;;3.03;;
33716;SDS011;20046;50.746;7.072;2023-12-20T14:28:52;10.13;;;2.70;;
33716;SDS011;20046;50.746;7.072;2023-12-20T14:31:18;11.80;;;2.50;;
33716;SDS011;20046;50.746;7.072;2023-12-20T14:33:44;9.80;;;2.28;;
33716;SDS011;20046;50.746;7.072;2023-12-20T14:36:11;5.60;;;1.60;;
33716;SDS011;20046;50.746;7.072;2023-12-20T14:38:36;9.10;;;2.13;;
33716;SDS011;20046;50.746;7.072;2023-12-20T14:41:02;10.40;;;2.08;;